createdAt,value
2017-08-04T00:01:57.701Z,19.10
2017-08-04T00:04:24.028Z,19.10
2017-08-04T00:06:50.344Z,19.00
2017-08-04T00:09:17.432Z,19.00
2017-08-04T00:11:43.732Z,19.00
2017-08-04T00:14:10.791Z,18.90
2017-08-04T00:16:37.095Z,18.90
2017-08-04T00:19:03.391Z,18.90
2017-08-04T00:21:29.704Z,18.80
2017-08-04T00:23:55.993Z,18.80
2017-08-04T00:26:22.288Z,18.70
2017-08-04T00:28:48.571Z,18.70
2017-08-04T00:31:15.591Z,18.60
2017-08-04T00:33:42.640Z,18.60
2017-08-04T00:36:08.919Z,18.60
2017-08-04T00:38:35.207Z,18.60
2017-08-04T00:41:02.251Z,18.50
2017-08-04T00:43:29.272Z,18.50
2017-08-04T00:45:55.568Z,18.50
2017-08-04T00:48:21.860Z,18.60
2017-08-04T00:50:48.904Z,18.60
2017-08-04T00:53:16.100Z,18.60
2017-08-04T00:55:42.420Z,18.50
2017-08-04T00:58:08.761Z,18.50
2017-08-04T01:00:35.032Z,18.50
2017-08-04T01:03:01.424Z,18.40
2017-08-04T01:05:27.969Z,18.40
2017-08-04T01:07:54.328Z,18.40
2017-08-04T01:10:21.399Z,18.40
2017-08-04T01:12:47.772Z,18.40
2017-08-04T01:15:14.189Z,18.40
2017-08-04T01:17:40.504Z,18.40
2017-08-04T01:20:06.836Z,18.40
2017-08-04T01:22:33.176Z,18.40
2017-08-04T01:24:59.445Z,18.50
2017-08-04T01:27:25.735Z,18.50
2017-08-04T01:29:52.066Z,18.50
2017-08-04T01:32:18.350Z,18.50
2017-08-04T01:34:44.635Z,18.50
2017-08-04T01:37:10.953Z,18.50
2017-08-04T01:39:37.237Z,18.60
2017-08-04T01:42:03.540Z,18.60
2017-08-04T01:44:29.919Z,18.60
2017-08-04T01:46:56.967Z,18.60
2017-08-04T01:49:23.236Z,18.60
2017-08-04T01:51:49.532Z,18.60
2017-08-04T01:54:16.548Z,18.60
2017-08-04T01:56:42.852Z,18.60
2017-08-04T01:59:09.172Z,18.60
2017-08-04T02:01:35.469Z,18.70
2017-08-04T02:04:01.793Z,18.70
2017-08-04T02:06:28.812Z,18.70
2017-08-04T02:08:55.103Z,18.70
2017-08-04T02:11:21.524Z,18.70
2017-08-04T02:13:47.892Z,18.70
2017-08-04T02:16:14.327Z,18.60
2017-08-04T02:18:40.627Z,18.60
2017-08-04T02:21:06.896Z,18.60
2017-08-04T02:23:33.193Z,18.60
2017-08-04T02:25:59.571Z,18.60
2017-08-04T02:28:26.588Z,18.70
2017-08-04T02:30:52.906Z,18.70
2017-08-04T02:33:19.200Z,18.70
2017-08-04T02:35:45.523Z,18.70
2017-08-04T02:38:12.520Z,18.70
2017-08-04T02:40:38.832Z,18.70
2017-08-04T02:43:05.150Z,18.80
2017-08-04T02:45:31.484Z,18.80
2017-08-04T02:47:57.828Z,18.70
2017-08-04T02:50:24.142Z,18.70
2017-08-04T02:52:50.467Z,18.80
2017-08-04T02:55:16.769Z,18.80
2017-08-04T02:57:43.954Z,18.70
2017-08-04T03:00:10.331Z,18.70
2017-08-04T03:02:37.516Z,18.60
2017-08-04T03:05:03.788Z,18.60
2017-08-04T03:07:30.265Z,18.60
2017-08-04T03:09:57.289Z,18.80
2017-08-04T03:12:24.383Z,18.90
2017-08-04T03:14:50.643Z,18.80
2017-08-04T03:17:16.927Z,18.90
2017-08-04T03:19:43.992Z,18.90
2017-08-04T03:22:10.269Z,18.90
2017-08-04T03:24:36.614Z,18.90
2017-08-04T03:27:03.119Z,18.90
2017-08-04T03:29:29.431Z,18.90
2017-08-04T03:31:55.703Z,18.90
2017-08-04T03:34:22.031Z,18.90
2017-08-04T03:36:48.328Z,19.00
2017-08-04T03:39:14.651Z,19.00
2017-08-04T03:41:40.941Z,19.00
2017-08-04T03:44:07.952Z,18.90
2017-08-04T03:46:34.251Z,18.90
2017-08-04T03:49:00.536Z,18.90
2017-08-04T03:51:26.859Z,18.90
2017-08-04T03:53:53.201Z,18.80
2017-08-04T03:56:20.295Z,18.70
2017-08-04T03:58:46.700Z,18.60
2017-08-04T04:01:13.023Z,18.60
2017-08-04T04:03:39.339Z,18.50
2017-08-04T04:06:06.499Z,18.40
2017-08-04T04:08:33.564Z,18.40
2017-08-04T04:10:59.887Z,18.30
2017-08-04T04:13:26.184Z,18.40
2017-08-04T04:15:53.247Z,18.40
2017-08-04T04:18:19.553Z,18.40
2017-08-04T04:20:46.603Z,18.50
2017-08-04T04:23:12.915Z,18.40
2017-08-04T04:25:39.217Z,18.50
2017-08-04T04:28:05.545Z,18.50
2017-08-04T04:30:31.972Z,18.70
2017-08-04T04:32:58.289Z,18.80
2017-08-04T04:35:24.571Z,18.90
2017-08-04T04:37:50.856Z,19.00
2017-08-04T04:40:17.144Z,19.10
2017-08-04T04:42:44.212Z,19.50
2017-08-04T04:45:10.539Z,19.50
2017-08-04T04:47:37.548Z,19.80
2017-08-04T04:50:03.856Z,19.80
2017-08-04T04:52:30.155Z,19.90
2017-08-04T04:54:57.175Z,20.10
2017-08-04T04:57:23.488Z,20.10
2017-08-04T04:59:49.774Z,20.30
2017-08-04T05:02:16.087Z,20.40
2017-08-04T05:04:43.115Z,20.70
2017-08-04T05:07:09.459Z,20.70
2017-08-04T05:09:35.893Z,20.80
2017-08-04T05:12:02.236Z,20.90
2017-08-04T05:14:28.583Z,21.00
2017-08-04T05:16:54.864Z,21.10
2017-08-04T05:19:21.954Z,21.40
2017-08-04T05:21:48.309Z,21.40
2017-08-04T05:24:14.627Z,21.50
2017-08-04T05:26:40.936Z,21.70
2017-08-04T05:29:07.256Z,21.90
2017-08-04T05:31:34.348Z,22.00
2017-08-04T05:34:00.616Z,22.00
2017-08-04T05:36:26.912Z,22.00
2017-08-04T05:38:53.224Z,22.00
2017-08-04T05:41:19.594Z,22.10
2017-08-04T05:43:46.656Z,22.40
2017-08-04T05:46:13.680Z,22.90
2017-08-04T05:48:40.002Z,22.80
2017-08-04T05:51:06.303Z,23.10
2017-08-04T05:53:32.593Z,23.30
2017-08-04T05:55:59.636Z,23.20
2017-08-04T05:58:26.692Z,23.20
2017-08-04T06:00:53.873Z,23.20
2017-08-04T06:03:20.191Z,23.20
2017-08-04T06:05:46.524Z,23.20
2017-08-04T06:08:12.831Z,23.20
2017-08-04T06:10:39.255Z,23.30
2017-08-04T06:13:05.576Z,23.40
2017-08-04T06:15:31.849Z,23.50
2017-08-04T06:17:58.162Z,23.60
2017-08-04T06:20:24.460Z,23.70
2017-08-04T06:22:51.553Z,24.00
2017-08-04T06:25:17.912Z,23.90
2017-08-04T06:27:44.193Z,24.10
2017-08-04T06:30:10.499Z,24.30
2017-08-04T06:32:37.580Z,24.50
2017-08-04T06:35:04.067Z,24.50
2017-08-04T06:37:30.429Z,24.60
2017-08-04T06:39:56.736Z,24.70
2017-08-04T06:42:23.088Z,25.00
2017-08-04T06:44:50.344Z,25.40
2017-08-04T06:47:16.652Z,25.40
2017-08-04T06:49:55.128Z,25.70
2017-08-04T06:52:33.785Z,25.90
2017-08-04T06:55:12.404Z,26.40
2017-08-04T06:57:38.701Z,26.80
2017-08-04T07:00:05.002Z,26.80
2017-08-04T07:02:31.311Z,27.00
2017-08-04T07:04:58.355Z,28.20
2017-08-04T07:07:25.431Z,27.90
2017-08-04T07:09:51.748Z,27.90
2017-08-04T07:12:18.156Z,27.70
2017-08-04T07:14:44.456Z,27.50
2017-08-04T07:17:10.732Z,27.10
2017-08-04T07:19:37.020Z,27.20
2017-08-04T07:22:03.301Z,27.80
2017-08-04T07:24:29.748Z,29.10
2017-08-04T07:26:56.249Z,30.60
2017-08-04T07:29:23.333Z,32.90
2017-08-04T07:31:49.640Z,32.90
2017-08-04T07:34:15.958Z,32.80
2017-08-04T07:36:43.020Z,31.60
2017-08-04T07:39:10.100Z,30.90
2017-08-04T07:41:36.428Z,30.90
2017-08-04T07:44:02.750Z,30.50
2017-08-04T07:46:29.039Z,30.30
2017-08-04T07:48:55.349Z,30.40
2017-08-04T07:51:21.644Z,32.00
2017-08-04T07:53:48.020Z,35.20
2017-08-04T07:56:15.096Z,40.90
2017-08-04T07:58:42.124Z,43.10
2017-08-04T08:01:09.205Z,44.30
2017-08-04T08:03:35.477Z,44.20
2017-08-04T08:06:01.812Z,43.60
2017-08-04T08:08:28.143Z,42.30
2017-08-04T08:10:54.439Z,41.50
2017-08-04T08:13:20.721Z,40.80
2017-08-04T08:15:47.797Z,43.30
2017-08-04T08:18:14.128Z,43.30
2017-08-04T08:20:40.476Z,43.00
2017-08-04T08:23:06.771Z,43.20
2017-08-04T08:25:33.855Z,43.40
2017-08-04T08:28:00.132Z,43.30
2017-08-04T08:30:26.456Z,42.60
2017-08-04T08:32:53.535Z,40.20
2017-08-04T08:35:19.859Z,40.20
2017-08-04T08:37:46.914Z,39.40
2017-08-04T08:40:13.213Z,39.30
2017-08-04T08:42:39.500Z,38.40
2017-08-04T08:45:05.854Z,37.30
2017-08-04T08:47:32.164Z,36.20
2017-08-04T08:49:58.471Z,35.60
2017-08-04T08:52:24.753Z,36.40
2017-08-04T08:54:51.023Z,39.80
2017-08-04T08:57:17.346Z,42.60
2017-08-04T08:59:43.772Z,43.30
2017-08-04T09:02:10.828Z,42.20
2017-08-04T09:04:37.132Z,42.30
2017-08-04T09:07:04.200Z,40.20
2017-08-04T09:09:31.247Z,39.30
2017-08-04T09:11:58.327Z,38.50
2017-08-04T09:14:24.654Z,38.40
2017-08-04T09:16:50.943Z,37.40
2017-08-04T09:19:18.016Z,35.00
2017-08-04T09:21:44.323Z,35.00
2017-08-04T09:24:11.342Z,34.20
2017-08-04T09:26:37.693Z,34.20
2017-08-04T09:29:04.756Z,34.90
2017-08-04T09:31:31.830Z,36.00
2017-08-04T09:33:58.127Z,35.90
2017-08-04T09:36:24.455Z,36.60
2017-08-04T09:38:51.565Z,39.50
2017-08-04T09:41:17.885Z,39.50
2017-08-04T09:43:44.221Z,39.90
2017-08-04T09:46:10.699Z,41.50
2017-08-04T09:48:37.777Z,41.60
2017-08-04T09:51:04.059Z,41.60
2017-08-04T09:53:30.416Z,40.60
2017-08-04T09:55:56.725Z,39.10
2017-08-04T09:58:23.756Z,36.60
2017-08-04T10:00:50.078Z,36.50
2017-08-04T10:03:16.391Z,35.60
2017-08-04T10:05:42.776Z,34.60
2017-08-04T10:08:09.804Z,33.00
2017-08-04T10:10:36.145Z,32.90
2017-08-04T10:13:03.209Z,32.00
2017-08-04T10:15:29.527Z,32.00
2017-08-04T10:17:55.945Z,32.10
2017-08-04T10:20:22.392Z,31.60
2017-08-04T10:22:49.469Z,31.50
2017-08-04T10:25:15.946Z,31.40
2017-08-04T10:27:42.275Z,31.20
2017-08-04T10:30:08.591Z,30.90
2017-08-04T10:32:34.872Z,30.60
2017-08-04T10:35:02.008Z,30.40
2017-08-04T10:37:29.044Z,30.30
2017-08-04T10:39:56.140Z,30.20
2017-08-04T10:42:22.432Z,30.20
2017-08-04T10:44:48.764Z,30.10
2017-08-04T10:47:15.095Z,29.90
2017-08-04T10:49:42.152Z,29.50
2017-08-04T10:52:09.217Z,29.40
2017-08-04T10:54:35.506Z,29.40
2017-08-04T10:57:02.587Z,29.60
2017-08-04T10:59:28.895Z,29.60
2017-08-04T11:01:55.176Z,29.80
2017-08-04T11:04:21.647Z,29.70
2017-08-04T11:06:47.926Z,29.40
2017-08-04T11:09:14.561Z,29.30
2017-08-04T11:11:40.874Z,29.20
2017-08-04T11:14:07.160Z,29.10
2017-08-04T11:16:33.524Z,28.90
2017-08-04T11:19:00.629Z,29.00
2017-08-04T11:21:26.952Z,29.00
2017-08-04T11:23:53.235Z,29.00
2017-08-04T11:26:20.434Z,29.20
2017-08-04T11:28:46.793Z,29.20
2017-08-04T11:31:13.095Z,29.20
2017-08-04T11:33:39.468Z,29.20
2017-08-04T11:36:05.800Z,29.40
2017-08-04T11:38:32.845Z,29.60
2017-08-04T11:41:00.110Z,29.60
2017-08-04T11:43:27.126Z,29.60
2017-08-04T11:45:53.431Z,29.50
2017-08-04T11:48:19.756Z,29.80
2017-08-04T11:50:46.067Z,30.00
2017-08-04T11:53:12.421Z,30.30
2017-08-04T11:55:38.715Z,30.40
2017-08-04T11:58:04.981Z,30.40
2017-08-04T12:00:31.291Z,30.50
2017-08-04T12:02:57.588Z,30.60
2017-08-04T12:05:23.884Z,30.60
2017-08-04T12:07:50.256Z,30.70
2017-08-04T12:10:16.579Z,30.80
2017-08-04T12:12:43.843Z,30.70
2017-08-04T12:15:10.163Z,30.60
2017-08-04T12:17:36.576Z,30.70
2017-08-04T12:20:02.876Z,30.70
2017-08-04T12:22:29.319Z,30.60
2017-08-04T12:24:55.599Z,30.60
2017-08-04T12:27:21.912Z,30.40
2017-08-04T12:29:49.020Z,29.80
2017-08-04T12:32:15.308Z,29.80
2017-08-04T12:34:41.724Z,29.80
2017-08-04T12:37:08.769Z,29.80
2017-08-04T12:39:35.116Z,29.80
2017-08-04T12:42:01.454Z,29.90
2017-08-04T12:44:27.819Z,30.00
2017-08-04T12:46:54.121Z,30.10
2017-08-04T12:49:20.474Z,30.10
2017-08-04T12:51:46.816Z,30.30
2017-08-04T12:54:13.172Z,30.30
2017-08-04T12:56:40.280Z,30.00
2017-08-04T12:59:06.634Z,30.00
2017-08-04T13:01:32.903Z,29.90
2017-08-04T13:03:59.252Z,29.80
2017-08-04T13:06:25.540Z,29.50
2017-08-04T13:08:53.141Z,28.90
2017-08-04T13:11:19.591Z,28.90
2017-08-04T13:13:45.974Z,28.70
2017-08-04T13:16:13.043Z,28.60
2017-08-04T13:18:39.324Z,28.60
2017-08-04T13:21:05.808Z,28.60
2017-08-04T13:23:32.187Z,28.60
2017-08-04T13:25:58.537Z,28.40
2017-08-04T13:28:25.840Z,28.00
2017-08-04T13:30:52.143Z,28.00
2017-08-04T13:33:18.435Z,28.10
2017-08-04T13:35:44.818Z,28.20
2017-08-04T13:38:17.420Z,28.30
2017-08-04T13:40:44.123Z,28.30
2017-08-04T13:43:10.580Z,28.50
2017-08-04T13:45:36.928Z,28.50
2017-08-04T13:48:03.250Z,28.50
2017-08-04T13:50:29.564Z,28.40
2017-08-04T13:52:55.857Z,28.30
2017-08-04T13:55:22.884Z,28.40
2017-08-04T13:57:49.192Z,28.40
2017-08-04T14:00:15.475Z,28.40
2017-08-04T14:02:41.782Z,28.40
2017-08-04T14:05:08.062Z,28.50
2017-08-04T14:07:34.619Z,28.40
2017-08-04T14:10:00.906Z,28.30
2017-08-04T14:12:27.296Z,28.30
2017-08-04T14:14:53.628Z,28.30
2017-08-04T14:17:19.936Z,28.30
2017-08-04T14:19:46.232Z,28.30
2017-08-04T14:22:19.648Z,28.20
2017-08-04T14:24:45.960Z,28.20
2017-08-04T14:27:12.347Z,28.20
2017-08-04T14:29:38.629Z,28.30
2017-08-04T14:32:04.947Z,28.40
2017-08-04T14:34:31.299Z,28.30
2017-08-04T14:36:57.572Z,28.10
2017-08-04T14:39:24.613Z,27.90
2017-08-04T14:41:50.933Z,27.90
2017-08-04T14:44:17.244Z,27.80
2017-08-04T14:46:43.543Z,27.90
2017-08-04T14:49:09.828Z,28.00
2017-08-04T14:51:36.907Z,28.20
2017-08-04T14:54:03.220Z,28.20
2017-08-04T14:56:30.256Z,28.00
2017-08-04T14:58:56.539Z,28.00
2017-08-04T15:01:22.855Z,28.00
2017-08-04T15:03:49.145Z,28.00
2017-08-04T15:06:15.420Z,28.10
2017-08-04T15:08:41.716Z,28.00
2017-08-04T15:11:08.740Z,28.10
2017-08-04T15:13:35.066Z,28.10
2017-08-04T15:16:01.381Z,28.10
2017-08-04T15:18:27.692Z,28.20
2017-08-04T15:20:54.004Z,28.30
2017-08-04T15:23:20.292Z,28.30
2017-08-04T15:25:47.382Z,28.20
2017-08-04T15:28:13.698Z,28.10
2017-08-04T15:30:40.022Z,28.00
2017-08-04T15:33:07.063Z,27.60
2017-08-04T15:35:33.351Z,27.60
2017-08-04T15:37:59.847Z,27.60
2017-08-04T15:40:26.355Z,27.50
2017-08-04T15:42:52.653Z,27.40
2017-08-04T15:45:18.979Z,27.50
2017-08-04T15:47:45.300Z,27.60
2017-08-04T15:50:11.602Z,27.70
2017-08-04T15:52:37.898Z,27.80
2017-08-04T15:55:04.212Z,27.70
2017-08-04T15:57:30.492Z,27.60
2017-08-04T15:59:56.801Z,27.50
2017-08-04T16:02:24.232Z,27.40
2017-08-04T16:04:50.524Z,27.30
2017-08-04T16:07:16.829Z,27.30
2017-08-04T16:09:43.176Z,27.20
2017-08-04T16:12:09.612Z,27.00
2017-08-04T16:14:36.127Z,26.80
2017-08-04T16:17:02.412Z,26.70
2017-08-04T16:19:28.717Z,26.60
2017-08-04T16:21:55.011Z,26.60
2017-08-04T16:24:21.359Z,26.70
2017-08-04T16:26:47.676Z,26.70
2017-08-04T16:29:14.004Z,26.70
2017-08-04T16:31:40.480Z,26.60
2017-08-04T16:34:06.800Z,26.60
2017-08-04T16:36:33.077Z,26.50
2017-08-04T16:38:59.519Z,26.40
2017-08-04T16:41:26.608Z,26.40
2017-08-04T16:43:52.953Z,26.40
2017-08-04T16:46:19.253Z,26.40
2017-08-04T16:48:45.583Z,26.60
2017-08-04T16:51:11.892Z,26.40
2017-08-04T16:53:38.221Z,26.40
2017-08-04T16:56:04.626Z,26.30
2017-08-04T16:58:31.649Z,26.20
2017-08-04T17:00:57.976Z,26.20
2017-08-04T17:03:24.296Z,26.20
2017-08-04T17:05:50.612Z,26.20
2017-08-04T17:08:16.938Z,26.20
2017-08-04T17:10:43.253Z,26.20
2017-08-04T17:13:09.603Z,26.20
2017-08-04T17:15:35.912Z,26.10
2017-08-04T17:18:02.250Z,26.10
2017-08-04T17:20:28.585Z,26.00
2017-08-04T17:22:55.063Z,26.00
2017-08-04T17:25:23.054Z,25.80
2017-08-04T17:27:49.394Z,25.80
2017-08-04T17:30:15.698Z,25.70
2017-08-04T17:32:42.037Z,25.70
2017-08-04T17:35:08.411Z,25.60
2017-08-04T17:37:34.720Z,25.40
2017-08-04T17:40:01.049Z,25.40
2017-08-04T17:42:28.116Z,25.20
2017-08-04T17:44:54.453Z,25.10
2017-08-04T17:47:20.764Z,25.10
2017-08-04T17:49:47.060Z,25.30
2017-08-04T17:52:13.486Z,25.30
2017-08-04T17:54:39.847Z,25.30
2017-08-04T17:57:06.188Z,25.20
2017-08-04T17:59:32.481Z,25.00
2017-08-04T18:01:58.809Z,24.90
2017-08-04T18:04:25.096Z,24.70
2017-08-04T18:06:51.379Z,24.60
2017-08-04T18:09:18.425Z,24.40
2017-08-04T18:11:45.506Z,24.30
2017-08-04T18:14:11.914Z,24.30
2017-08-04T18:16:38.993Z,24.20
2017-08-04T18:19:05.370Z,24.20
2017-08-04T18:21:31.693Z,24.20
2017-08-04T18:23:57.999Z,24.20
2017-08-04T18:26:24.290Z,24.20
2017-08-04T18:28:50.658Z,24.10
2017-08-04T18:31:16.956Z,24.00
2017-08-04T18:33:43.297Z,23.90
2017-08-04T18:36:09.684Z,23.80
2017-08-04T18:38:36.720Z,23.70
2017-08-04T18:41:03.041Z,23.60
2017-08-04T18:43:29.354Z,23.50
2017-08-04T18:45:55.694Z,23.40
2017-08-04T18:48:22.016Z,23.30
2017-08-04T18:50:48.315Z,23.30
2017-08-04T18:53:14.605Z,23.20
2017-08-04T18:55:41.696Z,22.90
2017-08-04T18:58:08.065Z,22.90
2017-08-04T19:00:34.333Z,22.80
2017-08-04T19:03:00.675Z,22.60
2017-08-04T19:05:27.013Z,22.40
2017-08-04T19:07:53.456Z,22.30
2017-08-04T19:10:19.984Z,22.10
2017-08-04T19:12:46.468Z,22.00
2017-08-04T19:15:12.837Z,21.90
2017-08-04T19:17:40.073Z,21.70
2017-08-04T19:20:07.092Z,21.70
2017-08-04T19:22:33.406Z,21.60
2017-08-04T19:24:59.894Z,21.50
2017-08-04T19:27:26.952Z,21.40
2017-08-04T19:29:53.245Z,21.40
2017-08-04T19:32:19.590Z,21.40
2017-08-04T19:34:46.676Z,21.20
2017-08-04T19:37:12.964Z,21.20
2017-08-04T19:39:39.330Z,21.20
2017-08-04T19:42:05.655Z,21.10
2017-08-04T19:44:32.034Z,21.10
2017-08-04T19:46:58.440Z,20.90
2017-08-04T19:49:24.764Z,20.90
2017-08-04T19:51:51.138Z,20.80
2017-08-04T19:54:18.409Z,20.90
2017-08-04T19:56:45.598Z,20.90
2017-08-04T19:59:12.250Z,20.90
2017-08-04T20:01:38.577Z,21.00
2017-08-04T20:04:05.013Z,21.20
2017-08-04T20:06:31.319Z,21.30
2017-08-04T20:08:57.833Z,21.40
2017-08-04T20:11:24.180Z,21.50
2017-08-04T20:13:50.628Z,21.50
2017-08-04T20:16:16.953Z,21.50
2017-08-04T20:18:43.307Z,21.60
2017-08-04T20:21:09.673Z,21.70
2017-08-04T20:23:36.712Z,21.60
2017-08-04T20:26:03.012Z,21.50
2017-08-04T20:28:29.372Z,21.60
2017-08-04T20:30:55.679Z,21.50
2017-08-04T20:33:21.968Z,21.50
2017-08-04T20:35:48.292Z,21.40
2017-08-04T20:38:14.686Z,21.40
2017-08-04T20:40:41.147Z,21.40
2017-08-04T20:43:08.295Z,21.20
2017-08-04T20:45:34.667Z,21.20
2017-08-04T20:48:00.967Z,21.10
2017-08-04T20:50:27.264Z,20.90
2017-08-04T20:52:53.598Z,20.80
2017-08-04T20:55:19.944Z,20.70
2017-08-04T20:57:47.021Z,20.60
2017-08-04T21:00:13.339Z,20.60
2017-08-04T21:02:39.657Z,20.50
2017-08-04T21:05:06.005Z,20.40
2017-08-04T21:07:32.408Z,20.30
2017-08-04T21:09:59.463Z,20.00
2017-08-04T21:12:26.524Z,19.90
2017-08-04T21:14:52.851Z,19.90
2017-08-04T21:17:19.160Z,19.90
2017-08-04T21:19:46.288Z,19.70
2017-08-04T21:22:12.617Z,19.60
2017-08-04T21:24:38.926Z,19.50
2017-08-04T21:27:05.212Z,19.50
2017-08-04T21:29:32.309Z,19.30
2017-08-04T21:31:58.572Z,19.30
2017-08-04T21:34:24.868Z,19.30
2017-08-04T21:36:51.153Z,19.20
2017-08-04T21:39:17.512Z,19.20
2017-08-04T21:41:43.841Z,19.10
2017-08-04T21:44:10.208Z,19.10
2017-08-04T21:46:36.631Z,19.10
2017-08-04T21:49:02.941Z,19.00
2017-08-04T21:51:29.264Z,19.00
2017-08-04T21:53:55.604Z,18.90
2017-08-04T21:56:21.944Z,18.90
2017-08-04T21:58:48.279Z,18.80
2017-08-04T22:01:14.595Z,18.80
2017-08-04T22:03:40.935Z,18.70
2017-08-04T22:06:07.220Z,18.70
2017-08-04T22:08:33.643Z,18.60
2017-08-04T22:11:00.712Z,18.50
2017-08-04T22:13:27.044Z,18.50
2017-08-04T22:15:53.347Z,18.50
2017-08-04T22:18:20.460Z,18.50
2017-08-04T22:20:46.754Z,18.40
2017-08-04T22:23:13.064Z,18.40
2017-08-04T22:25:39.365Z,18.30
2017-08-04T22:28:05.700Z,18.30
2017-08-04T22:30:32.009Z,18.20
2017-08-04T22:32:58.304Z,18.20
2017-08-04T22:35:24.692Z,18.10
2017-08-04T22:37:50.960Z,18.10
2017-08-04T22:40:17.315Z,18.00
2017-08-04T22:42:43.573Z,18.00
2017-08-04T22:45:09.875Z,18.10
2017-08-04T22:47:36.224Z,18.30
2017-08-04T22:50:02.510Z,18.40
2017-08-04T22:52:28.828Z,18.40
2017-08-04T22:54:55.239Z,18.30
2017-08-04T22:57:21.588Z,18.20
2017-08-04T22:59:47.988Z,18.30
2017-08-04T23:02:15.059Z,18.40
2017-08-04T23:04:41.397Z,18.40
2017-08-04T23:07:07.674Z,18.30
2017-08-04T23:09:34.105Z,18.20
2017-08-04T23:12:00.376Z,18.10
2017-08-04T23:14:27.856Z,17.80
2017-08-04T23:16:54.234Z,17.80
2017-08-04T23:19:20.637Z,17.80
2017-08-04T23:21:46.908Z,17.70
2017-08-04T23:24:13.239Z,17.70
2017-08-04T23:26:40.361Z,17.60
2017-08-04T23:29:06.785Z,17.60
2017-08-04T23:31:33.087Z,17.50
2017-08-04T23:33:59.442Z,17.50
2017-08-04T23:36:25.779Z,17.40
2017-08-04T23:38:52.243Z,17.30
2017-08-04T23:41:18.538Z,17.30
2017-08-04T23:43:44.898Z,17.20
2017-08-04T23:46:11.200Z,17.20
2017-08-04T23:48:37.577Z,17.30
2017-08-04T23:51:03.891Z,17.30
2017-08-04T23:53:30.167Z,17.20
2017-08-04T23:55:56.482Z,17.20
2017-08-04T23:58:22.779Z,17.10
